Time;durP1;ratioP1;P1;durP2;ratioP2;P2;SDS_P1;SDS_P2;PMS_P1;PMS_P2;Temp;Humidity;BMP_temperature;BMP_pressure;BME280_temperature;BME280_humidity;BME280_pressure;Samples;Min_cycle;Max_cycle;Signal;HPM_P1;HPM_P2
2023/12/29 00:00:24;;;;;;;;;;;;;;;19.62;48.03;100429.66;2060752;28;6129;-74
2023/12/29 00:01:29;;;;;;;;;;;;;;;19.63;48.02;100436.13;2066737;28;2465;-75
2023/12/29 00:02:30;;;;;;;;;;;;;;;19.61;47.92;100421.72;2071457;28;2008;-74
2023/12/29 00:03:32;;;;;;;;;;;;;;;19.60;48.04;100432.44;2066725;28;2386;-75
2023/12/29 00:04:33;;;;;;;;;;;;;;;19.61;48.10;100433.94;2070846;28;1671;-74
2023/12/29 00:05:36;;;;;;;;;;;;;;;19.61;48.08;100431.06;2070714;28;1746;-75
2023/12/29 00:06:38;;;;;;;;;;;;;;;19.60;48.01;100420.97;2064615;28;2162;-74
2023/12/29 00:07:54;;;;;;;;;;;;;;;19.61;48.01;100425.31;2069196;28;2192;-74
2023/12/29 00:08:55;;;;;;;;;;;;;;;19.61;47.79;100433.19;2065330;28;2407;-73
2023/12/29 00:09:57;;;;;;;;;;;;;;;19.61;48.07;100421.72;2068701;28;2205;-73
2023/12/29 00:10:58;;;;;;;;;;;;;;;19.59;47.97;100419.50;2066113;28;2141;-74
2023/12/29 00:12:00;;;;;;;;;;;;;;;19.60;48.01;100414.47;2067247;28;2478;-74
2023/12/29 00:13:01;;;;;;;;;;;;;;;19.58;47.97;100406.50;2067950;28;2620;-74
2023/12/29 00:14:03;;;;;;;;;;;;;;;19.59;47.90;100410.88;2068118;28;2164;-74
2023/12/29 00:15:05;;;;;;;;;;;;;;;19.58;47.99;100412.25;2066782;28;2498;-75
2023/12/29 00:16:06;;;;;;;;;;;;;;;19.58;47.91;100400.03;2067780;28;2645;-75
2023/12/29 00:17:07;;;;;;;;;;;;;;;19.58;47.93;100406.50;2066001;28;2127;-74
2023/12/29 00:18:09;;;;;;;;;;;;;;;19.58;47.97;100412.25;2067306;28;2173;-74
2023/12/29 00:19:11;;;;;;;;;;;;;;;19.58;47.84;100411.53;2067458;28;2033;-74
2023/12/29 00:20:13;;;;;;;;;;;;;;;19.57;47.98;100405.03;2067737;28;2534;-74
2023/12/29 00:21:22;;;;;;;;;;;;;;;19.55;47.86;100407.81;2071737;28;1754;-74
2023/12/29 00:22:25;;;;;;;;;;;;;;;19.56;47.88;100403.56;2068817;28;2088;-76
2023/12/29 00:23:26;;;;;;;;;;;;;;;19.55;47.91;100396.34;2064949;28;1734;-75
2023/12/29 00:24:28;;;;;;;;;;;;;;;19.54;47.92;100400.63;2068862;28;2658;-74
2023/12/29 00:25:29;;;;;;;;;;;;;;;19.55;47.83;100407.81;2070914;28;2113;-74
2023/12/29 00:26:30;;;;;;;;;;;;;;;19.55;47.86;100401.34;2066966;28;2470;-74
2023/12/29 00:27:32;;;;;;;;;;;;;;;19.55;47.85;100399.22;2067450;28;2192;-74
2023/12/29 00:28:36;;;;;;;;;;;;;;;19.54;47.80;100400.63;2069967;28;2130;-74
2023/12/29 00:29:37;;;;;;;;;;;;;;;19.54;47.65;100400.63;2067360;28;2305;-76
2023/12/29 00:30:39;;;;;;;;;;;;;;;19.55;47.61;100410.69;2068069;28;6538;-74
2023/12/29 00:31:57;;;;;;;;;;;;;;;19.56;47.64;100405.69;2067233;28;2018;-75
2023/12/29 00:32:59;;;;;;;;;;;;;;;19.55;47.67;100407.81;2064350;28;2461;-76
2023/12/29 00:34:00;;;;;;;;;;;;;;;19.54;47.81;100406.34;2063409;28;2435;-72
2023/12/29 00:35:02;;;;;;;;;;;;;;;19.54;47.62;100400.63;2063308;28;1619;-74
2023/12/29 00:36:04;;;;;;;;;;;;;;;19.54;47.70;100391.25;2065463;28;1520;-74
2023/12/29 00:37:05;;;;;;;;;;;;;;;19.54;47.53;100386.25;2066966;28;1957;-74
2023/12/29 00:38:07;;;;;;;;;;;;;;;19.54;47.61;100392.00;2060689;28;2308;-76
2023/12/29 00:39:08;;;;;;;;;;;;;;;19.54;47.71;100400.63;2067678;28;2129;-75
2023/12/29 00:40:10;;;;;;;;;;;;;;;19.54;47.53;100400.63;2054910;28;2126;-74
2023/12/29 00:41:11;;;;;;;;;;;;;;;19.53;47.49;100386.91;2047649;28;2318;-74
2023/12/29 00:42:13;;;;;;;;;;;;;;;19.54;47.57;100396.97;2055458;28;2324;-74
2023/12/29 00:43:14;;;;;;;;;;;;;;;19.54;47.65;100394.09;2064862;28;1697;-73
2023/12/29 00:44:16;;;;;;;;;;;;;;;19.54;47.44;100394.88;2066760;28;2547;-74
2023/12/29 00:45:17;;;;;;;;;;;;;;;19.54;47.50;100388.38;2061814;28;2589;-75
2023/12/29 00:46:19;;;;;;;;;;;;;;;19.52;47.63;100377.56;2061904;28;2127;-74
2023/12/29 00:47:23;;;;;;;;;;;;;;;19.52;47.60;100377.56;2068744;28;2514;-75
2023/12/29 00:48:24;;;;;;;;;;;;;;;19.53;47.56;100378.28;2063022;28;2131;-74
2023/12/29 00:49:26;;;;;;;;;;;;;;;19.51;47.53;100384.66;2061280;28;2537;-74
2023/12/29 00:50:28;;;;;;;;;;;;;;;19.52;47.56;100386.16;2065349;28;1635;-74
2023/12/29 00:51:29;;;;;;;;;;;;;;;19.52;47.46;100389.03;2066053;28;1678;-74
2023/12/29 00:52:30;;;;;;;;;;;;;;;19.51;47.52;100367.44;2060302;28;1669;-75
2023/12/29 00:53:33;;;;;;;;;;;;;;;19.51;47.58;100378.94;2060569;28;2439;-74
2023/12/29 00:54:34;;;;;;;;;;;;;;;19.51;47.48;100372.44;2066522;28;1745;-74
2023/12/29 00:55:36;;;;;;;;;;;;;;;19.51;47.59;100375.31;2061931;28;2651;-75
2023/12/29 00:56:37;;;;;;;;;;;;;;;19.51;47.50;100361.69;2064674;28;2270;-75
2023/12/29 00:57:38;;;;;;;;;;;;;;;19.49;47.54;100358.75;2051811;28;2679;-75
2023/12/29 00:58:40;;;;;;;;;;;;;;;19.49;47.53;100358.75;2053441;28;1918;-75
2023/12/29 00:59:43;;;;;;;;;;;;;;;19.50;47.58;100360.22;2064373;28;1999;-75
2023/12/29 01:00:45;;;;;;;;;;;;;;;19.49;47.50;100369.50;2064263;28;6248;-75
2023/12/29 01:01:46;;;;;;;;;;;;;;;19.49;47.40;100370.22;2063294;28;1794;-74
2023/12/29 01:02:48;;;;;;;;;;;;;;;19.50;47.53;100363.09;2058797;28;1688;-74
2023/12/29 01:03:54;;;;;;;;;;;;;;;19.48;47.55;100363.00;2066113;28;1995;-74
2023/12/29 01:04:56;;;;;;;;;;;;;;;19.49;47.53;100364.47;2059112;28;2008;-74
2023/12/29 01:05:57;;;;;;;;;;;;;;;19.48;47.54;100357.28;2064447;28;2650;-74
2023/12/29 01:06:59;;;;;;;;;;;;;;;19.48;47.56;100359.41;2062909;28;2541;-75
2023/12/29 01:08:00;;;;;;;;;;;;;;;19.46;47.54;100365.81;2061800;28;2136;-75
2023/12/29 01:09:03;;;;;;;;;;;;;;;19.47;47.55;100355.81;2060897;28;2258;-75
2023/12/29 01:10:05;;;;;;;;;;;;;;;19.45;47.54;100367.22;2052118;28;2502;-75
2023/12/29 01:11:06;;;;;;;;;;;;;;;19.44;47.63;100352.09;2055171;28;2745;-74
2023/12/29 01:12:07;;;;;;;;;;;;;;;19.43;47.59;100356.38;2062474;28;2121;-74
2023/12/29 01:13:09;;;;;;;;;;;;;;;19.44;47.60;100352.09;2063114;28;1638;-74
2023/12/29 01:14:11;;;;;;;;;;;;;;;19.44;47.41;100362.84;2063888;28;2216;-76
2023/12/29 01:15:12;;;;;;;;;;;;;;;19.45;47.51;100370.06;2061864;28;2624;-74
2023/12/29 01:16:14;;;;;;;;;;;;;;;19.44;47.48;100351.34;2060897;28;2346;-74
2023/12/29 01:17:15;;;;;;;;;;;;;;;19.45;47.47;100364.34;2057783;28;2458;-74
2023/12/29 01:18:16;;;;;;;;;;;;;;;19.44;47.48;100362.84;2060121;28;2216;-74
2023/12/29 01:19:18;;;;;;;;;;;;;;;19.45;47.55;100364.34;2059320;28;2073;-74
2023/12/29 01:20:19;;;;;;;;;;;;;;;19.43;47.28;100356.38;2060364;28;2501;-75
2023/12/29 01:21:21;;;;;;;;;;;;;;;19.43;47.39;100362.09;2058610;28;2137;-75
2023/12/29 01:22:22;;;;;;;;;;;;;;;19.41;47.40;100353.41;2059556;28;2486;-74
2023/12/29 01:23:24;;;;;;;;;;;;;;;19.43;47.47;100355.63;2059025;28;2097;-74
2023/12/29 01:24:25;;;;;;;;;;;;;;;19.43;47.30;100352.75;2060949;28;2517;-76
2023/12/29 01:25:36;;;;;;;;;;;;;;;19.42;47.40;100345.53;2059617;28;2098;-74
2023/12/29 01:26:38;;;;;;;;;;;;;;;19.43;47.35;100347.00;2059569;28;2533;-74
2023/12/29 01:27:39;;;;;;;;;;;;;;;19.43;47.41;100338.41;2060695;28;2597;-75
2023/12/29 01:28:40;;;;;;;;;;;;;;;19.42;47.36;100336.91;2064229;28;1722;-75
2023/12/29 01:29:42;;;;;;;;;;;;;;;19.41;47.35;100341.91;2060903;28;1815;-74
2023/12/29 01:30:44;;;;;;;;;;;;;;;19.40;47.44;100340.44;2058911;28;6221;-75
2023/12/29 01:31:46;;;;;;;;;;;;;;;19.41;47.36;100336.19;2060146;28;1849;-73
2023/12/29 01:32:47;;;;;;;;;;;;;;;19.40;47.38;100328.97;2063763;28;2093;-75
2023/12/29 01:33:49;;;;;;;;;;;;;;;19.41;47.43;100333.31;2056652;28;1861;-74
2023/12/29 01:34:51;;;;;;;;;;;;;;;19.40;47.39;100331.84;2060148;28;2449;-75
2023/12/29 01:35:53;;;;;;;;;;;;;;;19.41;47.42;100338.31;2059635;28;2107;-74
2023/12/29 01:36:54;;;;;;;;;;;;;;;19.40;47.42;100333.94;2060262;28;2018;-75
2023/12/29 01:37:56;;;;;;;;;;;;;;;19.40;47.38;100331.09;2058054;28;2482;-75
2023/12/29 01:38:59;;;;;;;;;;;;;;;19.40;47.24;100331.09;2061080;28;2102;-74
2023/12/29 01:40:00;;;;;;;;;;;;;;;19.39;47.34;100333.22;2061325;28;2460;-75
2023/12/29 01:41:01;;;;;;;;;;;;;;;19.39;47.25;100335.34;2062565;28;2504;-75
2023/12/29 01:42:03;;;;;;;;;;;;;;;19.39;47.27;100326.75;2060434;28;1853;-75
2023/12/29 01:43:04;;;;;;;;;;;;;;;19.37;47.36;100329.53;2063247;28;1754;-75
2023/12/29 01:44:19;;;;;;;;;;;;;;;19.39;47.33;100323.88;2060166;28;2599;-75
2023/12/29 01:45:22;;;;;;;;;;;;;;;19.38;47.26;100326.00;2058326;28;2590;-75
2023/12/29 01:46:27;;;;;;;;;;;;;;;19.39;47.30;100321.00;2059239;28;2636;-75
2023/12/29 01:47:29;;;;;;;;;;;;;;;19.37;47.32;100320.91;2057583;28;2678;-75
2023/12/29 01:48:30;;;;;;;;;;;;;;;19.37;47.12;100315.91;2052557;28;2238;-75
2023/12/29 01:49:33;;;;;;;;;;;;;;;19.36;47.25;100317.31;2055595;28;2525;-75
2023/12/29 01:50:34;;;;;;;;;;;;;;;19.37;47.14;100312.31;2059822;28;1794;-76
2023/12/29 01:51:35;;;;;;;;;;;;;;;19.37;47.38;100307.28;2059973;28;1624;-74
2023/12/29 01:52:37;;;;;;;;;;;;;;;19.35;47.22;100309.34;2060192;28;2190;-75
2023/12/29 01:53:38;;;;;;;;;;;;;;;19.36;47.17;100308.69;2051785;28;2313;-75
2023/12/29 01:54:49;;;;;;;;;;;;;;;19.37;47.08;100306.56;2050881;28;2115;-75
2023/12/29 01:55:50;;;;;;;;;;;;;;;19.36;47.12;100311.56;2060839;28;2455;-76
2023/12/29 01:56:51;;;;;;;;;;;;;;;19.36;47.05;100302.97;2060787;28;2229;-75
2023/12/29 01:57:53;;;;;;;;;;;;;;;19.35;47.20;100304.34;2061698;28;2819;-75
2023/12/29 01:58:54;;;;;;;;;;;;;;;19.35;47.23;100303.59;2061921;28;1662;-75
2023/12/29 01:59:58;;;;;;;;;;;;;;;19.35;47.14;100303.59;2063438;28;1993;-75
2023/12/29 02:01:00;;;;;;;;;;;;;;;19.35;47.04;100310.06;2058577;28;6171;-75
2023/12/29 02:02:01;;;;;;;;;;;;;;;19.35;47.01;100304.34;2060414;28;1643;-75
2023/12/29 02:03:03;;;;;;;;;;;;;;;19.35;47.07;100309.34;2064181;28;1670;-75
2023/12/29 02:04:05;;;;;;;;;;;;;;;19.34;47.10;100302.13;2063811;28;2352;-75
2023/12/29 02:05:07;;;;;;;;;;;;;;;19.34;46.80;100305.00;2060464;28;1773;-75
2023/12/29 02:06:09;;;;;;;;;;;;;;;19.34;47.08;100305.75;2060955;28;2588;-74
2023/12/29 02:07:10;;;;;;;;;;;;;;;19.34;47.01;100307.88;2058728;28;2597;-75
2023/12/29 02:08:12;;;;;;;;;;;;;;;19.34;47.06;100300.00;2056906;28;2494;-75
2023/12/29 02:09:13;;;;;;;;;;;;;;;19.33;47.06;100301.38;2057858;28;2141;-75
2023/12/29 02:10:15;;;;;;;;;;;;;;;19.34;47.00;100294.25;2064631;28;2503;-75
2023/12/29 02:11:17;;;;;;;;;;;;;;;19.34;47.01;100310.75;2064187;28;1579;-75
2023/12/29 02:12:18;;;;;;;;;;;;;;;19.33;47.02;100301.38;2061954;28;1652;-75
2023/12/29 02:13:22;;;;;;;;;;;;;;;19.32;46.98;100288.44;2057737;28;2547;-74
2023/12/29 02:14:23;;;;;;;;;;;;;;;19.32;46.87;100296.31;2061228;28;1674;-75
2023/12/29 02:15:25;;;;;;;;;;;;;;;19.32;46.90;100290.56;2061796;28;2687;-76
2023/12/29 02:16:40;;;;;;;;;;;;;;;19.30;46.91;100293.34;2051742;28;2127;-75
2023/12/29 02:17:44;;;;;;;;;;;;;;;19.30;46.96;100287.59;2052887;28;2133;-74
2023/12/29 02:18:46;;;;;;;;;;;;;;;19.30;46.98;100287.59;2049703;28;2507;-74
2023/12/29 02:19:49;;;;;;;;;;;;;;;19.31;46.86;100291.94;2041508;28;2135;-76
2023/12/29 02:20:51;;;;;;;;;;;;;;;19.31;46.64;100289.06;2052975;28;2197;-75
2023/12/29 02:21:52;;;;;;;;;;;;;;;19.30;46.94;100276.84;2053691;28;2503;-75
2023/12/29 02:22:55;;;;;;;;;;;;;;;19.31;46.88;100274.72;2050614;28;2719;-75
2023/12/29 02:23:56;;;;;;;;;;;;;;;19.29;46.84;100268.88;2061169;28;2096;-75
2023/12/29 02:24:57;;;;;;;;;;;;;;;19.29;46.87;100277.50;2058817;28;2549;-75
2023/12/29 02:26:01;;;;;;;;;;;;;;;19.29;46.86;100280.38;2058002;28;2470;-74
2023/12/29 02:27:06;;;;;;;;;;;;;;;19.29;46.79;100280.38;2057725;28;2921;-75
2023/12/29 02:28:08;;;;;;;;;;;;;;;19.29;46.81;100274.63;2057930;28;1873;-76
2023/12/29 02:29:09;;;;;;;;;;;;;;;19.27;46.76;100275.31;2055651;28;2667;-76
2023/12/29 02:30:26;;;;;;;;;;;;;;;19.26;46.68;100273.81;2057165;28;6285;-75
2023/12/29 02:31:27;;;;;;;;;;;;;;;19.27;46.81;100263.81;2054156;28;1601;-74
2023/12/29 02:32:29;;;;;;;;;;;;;;;19.28;46.79;100276.03;2046557;28;1500;-75
2023/12/29 02:33:30;;;;;;;;;;;;;;;19.27;46.85;100269.56;2051757;28;2106;-76
2023/12/29 02:34:32;;;;;;;;;;;;;;;19.27;46.83;100265.97;2058762;28;2436;-75
2023/12/29 02:35:36;;;;;;;;;;;;;;;19.27;46.81;100269.56;2057574;28;1619;-75
2023/12/29 02:36:42;;;;;;;;;;;;;;;19.26;46.90;100268.06;2060365;28;1623;-74
2023/12/29 02:37:44;;;;;;;;;;;;;;;19.28;46.80;100265.28;2061436;28;2288;-75
2023/12/29 02:38:45;;;;;;;;;;;;;;;19.28;46.74;100267.44;2045311;28;2557;-75
2023/12/29 02:39:47;;;;;;;;;;;;;;;19.26;46.78;100273.81;2045730;28;1919;-75
2023/12/29 02:40:48;;;;;;;;;;;;;;;19.27;46.76;100266.69;2061122;28;2169;-75
2023/12/29 02:41:50;;;;;;;;;;;;;;;19.27;46.84;100263.09;2059884;28;1779;-75
2023/12/29 02:42:51;;;;;;;;;;;;;;;19.27;46.82;100271.69;2058546;28;2517;-75
2023/12/29 02:43:53;;;;;;;;;;;;;;;19.26;46.89;100268.06;2048585;28;2520;-76
2023/12/29 02:44:54;;;;;;;;;;;;;;;19.25;46.72;100261.59;2051470;28;2456;-75
2023/12/29 02:45:55;;;;;;;;;;;;;;;19.25;46.69;100260.88;2054978;28;2533;-74
2023/12/29 02:46:57;;;;;;;;;;;;;;;19.26;46.75;100250.84;2055867;28;2181;-75
2023/12/29 02:47:59;;;;;;;;;;;;;;;19.25;46.72;100250.13;2058262;28;2094;-75
2023/12/29 02:49:00;;;;;;;;;;;;;;;19.25;46.76;100250.13;2057999;28;2589;-74
2023/12/29 02:50:02;;;;;;;;;;;;;;;19.24;46.70;100248.66;2053994;28;2519;-75
2023/12/29 02:51:05;;;;;;;;;;;;;;;19.24;46.62;100242.91;2055992;28;1570;-75
2023/12/29 02:52:07;;;;;;;;;;;;;;;19.24;46.61;100237.16;2059887;28;1691;-75
2023/12/29 02:53:09;;;;;;;;;;;;;;;19.24;46.35;100245.78;2052918;28;2543;-75
2023/12/29 02:54:10;;;;;;;;;;;;;;;19.24;46.61;100245.78;2047334;28;2507;-75
2023/12/29 02:55:15;;;;;;;;;;;;;;;19.24;46.63;100245.78;2063376;28;2188;-74
2023/12/29 02:56:16;;;;;;;;;;;;;;;19.24;46.73;100242.16;2059610;28;2654;-75
2023/12/29 02:57:18;;;;;;;;;;;;;;;19.24;46.63;100251.53;2057626;28;2431;-75
2023/12/29 02:58:19;;;;;;;;;;;;;;;19.23;46.70;100247.16;2060253;28;2481;-75
2023/12/29 02:59:21;;;;;;;;;;;;;;;19.24;46.75;100254.41;2059644;28;2613;-76
2023/12/29 03:00:22;;;;;;;;;;;;;;;19.25;46.68;100250.13;2058118;28;6503;-75
2023/12/29 03:01:24;;;;;;;;;;;;;;;19.24;46.73;100251.53;2060701;28;2093;-75
2023/12/29 03:02:25;;;;;;;;;;;;;;;19.22;46.72;100245.69;2061595;28;2303;-75
2023/12/29 03:03:27;;;;;;;;;;;;;;;19.23;46.67;100247.16;2059174;28;2128;-76
2023/12/29 03:04:28;;;;;;;;;;;;;;;19.22;46.65;100239.94;2058254;28;2252;-75
2023/12/29 03:05:30;;;;;;;;;;;;;;;19.23;46.62;100246.44;2060074;28;1717;-75
2023/12/29 03:06:31;;;;;;;;;;;;;;;19.21;46.63;100244.19;2057871;28;2463;-75
2023/12/29 03:07:33;;;;;;;;;;;;;;;19.20;46.72;100242.75;2055847;28;1720;-75
2023/12/29 03:08:34;;;;;;;;;;;;;;;19.22;46.60;100247.84;2062403;28;2553;-75
2023/12/29 03:09:36;;;;;;;;;;;;;;;19.22;46.61;100250.69;2060372;28;1567;-75
2023/12/29 03:10:37;;;;;;;;;;;;;;;19.23;46.65;100249.28;2064122;28;1638;-75
2023/12/29 03:11:38;;;;;;;;;;;;;;;19.22;46.50;100239.94;2062469;28;1528;-75
2023/12/29 03:12:40;;;;;;;;;;;;;;;19.22;46.48;100239.94;2056252;28;2465;-75
2023/12/29 03:13:41;;;;;;;;;;;;;;;19.22;46.57;100242.81;2049860;28;2547;-75
2023/12/29 03:14:43;;;;;;;;;;;;;;;19.21;46.44;100232.72;2051097;28;2337;-76
2023/12/29 03:15:45;;;;;;;;;;;;;;;19.23;46.63;100243.56;2055869;28;2597;-75
2023/12/29 03:16:46;;;;;;;;;;;;;;;19.22;46.54;100239.22;2059667;28;2292;-74
2023/12/29 03:17:48;;;;;;;;;;;;;;;19.23;46.43;100237.81;2056817;28;2113;-76
2023/12/29 03:18:49;;;;;;;;;;;;;;;19.22;46.53;100233.47;2059719;28;1960;-74
2023/12/29 03:19:51;;;;;;;;;;;;;;;19.21;46.51;100232.72;2059259;28;2562;-75
2023/12/29 03:20:53;;;;;;;;;;;;;;;19.21;46.55;100224.09;2058360;28;2540;-76
2023/12/29 03:21:54;;;;;;;;;;;;;;;19.20;46.49;100222.66;2062148;28;2088;-76
2023/12/29 03:22:56;;;;;;;;;;;;;;;19.20;46.48;100237.00;2060643;28;1707;-75
2023/12/29 03:23:57;;;;;;;;;;;;;;;19.20;46.58;100230.53;2057924;28;2509;-75
2023/12/29 03:24:58;;;;;;;;;;;;;;;19.21;46.49;100232.72;2055366;28;2095;-74
2023/12/29 03:26:00;;;;;;;;;;;;;;;19.21;46.37;100229.13;2056978;28;2483;-75
2023/12/29 03:27:01;;;;;;;;;;;;;;;19.20;46.45;100231.25;2055832;28;2431;-76
2023/12/29 03:28:03;;;;;;;;;;;;;;;19.21;46.56;100232.72;2058874;28;2101;-75
2023/12/29 03:29:05;;;;;;;;;;;;;;;19.20;46.53;100228.38;2059268;28;2086;-75
2023/12/29 03:30:06;;;;;;;;;;;;;;;19.20;46.53;100225.50;2058048;28;6122;-75
2023/12/29 03:31:08;;;;;;;;;;;;;;;19.19;46.55;100221.16;2060034;28;1611;-75
2023/12/29 03:32:10;;;;;;;;;;;;;;;19.19;46.44;100223.28;2062108;28;1697;-75
2023/12/29 03:33:11;;;;;;;;;;;;;;;19.18;46.49;100222.56;2060067;28;2534;-74
2023/12/29 03:34:13;;;;;;;;;;;;;;;19.18;46.46;100216.81;2055912;28;2208;-75
2023/12/29 03:35:16;;;;;;;;;;;;;;;19.19;46.40;100211.81;2053986;28;2379;-75
2023/12/29 03:36:17;;;;;;;;;;;;;;;19.19;46.43;100215.41;2058620;28;2466;-76
2023/12/29 03:37:19;;;;;;;;;;;;;;;19.19;46.45;100218.28;2059329;28;2152;-75
2023/12/29 03:38:20;;;;;;;;;;;;;;;19.20;46.41;100213.31;2058800;28;2361;-75
2023/12/29 03:39:23;;;;;;;;;;;;;;;19.19;46.43;100215.41;2058692;28;1861;-76
2023/12/29 03:40:24;;;;;;;;;;;;;;;19.19;46.45;100209.66;2063236;28;1973;-65
2023/12/29 03:41:26;;;;;;;;;;;;;;;19.19;46.44;100218.28;2063521;28;2065;-67
2023/12/29 03:42:27;;;;;;;;;;;;;;;19.21;46.51;100209.03;2058140;28;2573;-62
2023/12/29 03:43:29;;;;;;;;;;;;;;;19.21;46.55;100215.50;2062805;28;2111;-66
2023/12/29 03:44:30;;;;;;;;;;;;;;;19.22;46.59;100211.25;2059814;28;2423;-62
2023/12/29 03:45:32;;;;;;;;;;;;;;;19.21;46.53;100212.63;2056505;28;2608;-62
2023/12/29 03:46:33;;;;;;;;;;;;;;;19.23;46.62;100211.97;2060168;28;1590;-62
2023/12/29 03:47:35;;;;;;;;;;;;;;;19.24;46.69;100219.94;2059487;28;2097;-62
2023/12/29 03:48:37;;;;;;;;;;;;;;;19.25;46.69;100214.94;2058716;28;2097;-62
2023/12/29 03:49:39;;;;;;;;;;;;;;;19.26;46.78;100210.66;2059422;28;2121;-62
2023/12/29 03:50:40;;;;;;;;;;;;;;;19.25;46.75;100209.94;2057429;28;2506;-62
2023/12/29 03:51:41;;;;;;;;;;;;;;;19.27;46.83;100211.41;2059466;28;2182;-62
2023/12/29 03:52:43;;;;;;;;;;;;;;;19.27;46.84;100208.56;2059338;28;2172;-62
2023/12/29 03:53:44;;;;;;;;;;;;;;;19.28;46.80;100195.66;2056895;28;2515;-63
2023/12/29 03:54:46;;;;;;;;;;;;;;;19.27;46.83;100199.94;2058405;28;2155;-62
2023/12/29 03:55:47;;;;;;;;;;;;;;;19.28;46.87;100205.00;2060211;28;2094;-62
2023/12/29 03:56:49;;;;;;;;;;;;;;;19.29;46.93;100197.88;2059079;28;2130;-62
2023/12/29 03:57:50;;;;;;;;;;;;;;;19.30;46.97;100195.75;2059118;28;2497;-62
2023/12/29 03:58:52;;;;;;;;;;;;;;;19.31;46.75;100205.81;2056395;28;2459;-62
2023/12/29 03:59:53;;;;;;;;;;;;;;;19.32;46.93;100195.84;2061069;28;2073;-62
2023/12/29 04:00:54;;;;;;;;;;;;;;;19.32;47.28;100184.34;2056940;28;6013;-62
2023/12/29 04:01:56;;;;;;;;;;;;;;;19.33;47.30;100182.94;2059734;28;2377;-62
2023/12/29 04:02:57;;;;;;;;;;;;;;;19.32;47.20;100187.94;2064070;28;1547;-63
2023/12/29 04:03:59;;;;;;;;;;;;;;;19.33;47.33;100191.56;2061237;28;2082;-62
2023/12/29 04:05:01;;;;;;;;;;;;;;;19.33;47.53;100191.56;2055169;28;2890;-63
2023/12/29 04:06:03;;;;;;;;;;;;;;;19.32;47.46;100196.56;2058599;28;2180;-62
2023/12/29 04:07:04;;;;;;;;;;;;;;;19.33;47.42;100188.69;2058657;28;2120;-62
2023/12/29 04:08:06;;;;;;;;;;;;;;;19.33;47.46;100183.69;2056293;28;2762;-62
2023/12/29 04:09:08;;;;;;;;;;;;;;;19.33;47.41;100185.81;2055678;28;2488;-62
2023/12/29 04:10:09;;;;;;;;;;;;;;;19.33;47.42;100180.06;2057351;28;2530;-62
2023/12/29 04:11:11;;;;;;;;;;;;;;;19.32;47.34;100185.09;2058598;28;2484;-62
2023/12/29 04:12:13;;;;;;;;;;;;;;;19.33;47.48;100174.31;2058309;28;1629;-62
2023/12/29 04:13:14;;;;;;;;;;;;;;;19.32;47.48;100172.88;2059484;28;1881;-62
2023/12/29 04:14:16;;;;;;;;;;;;;;;19.32;47.37;100175.75;2058919;28;2126;-62
2023/12/29 04:15:17;;;;;;;;;;;;;;;19.31;47.45;100168.50;2056795;28;2680;-62
2023/12/29 04:16:19;;;;;;;;;;;;;;;19.31;47.50;100182.84;2058907;28;2373;-62
2023/12/29 04:17:20;;;;;;;;;;;;;;;19.30;47.61;100169.91;2059214;28;2065;-62
2023/12/29 04:18:22;;;;;;;;;;;;;;;19.30;47.59;100182.13;2056856;28;2477;-62
2023/12/29 04:19:23;;;;;;;;;;;;;;;19.31;47.54;100171.38;2057283;28;2133;-63
2023/12/29 04:20:25;;;;;;;;;;;;;;;19.30;47.82;100158.44;2049746;28;2235;-62
2023/12/29 04:21:26;;;;;;;;;;;;;;;19.31;47.71;100162.75;2050449;28;2250;-62
2023/12/29 04:22:28;;;;;;;;;;;;;;;19.31;47.72;100154.16;2058707;28;2661;-63
2023/12/29 04:23:29;;;;;;;;;;;;;;;19.32;47.72;100158.50;2062126;28;2220;-62
2023/12/29 04:24:30;;;;;;;;;;;;;;;19.32;47.72;100155.66;2059853;28;2280;-62
2023/12/29 04:25:32;;;;;;;;;;;;;;;19.32;47.71;100153.50;2059760;28;2160;-63
2023/12/29 04:26:36;;;;;;;;;;;;;;;19.32;47.82;100155.66;2057450;28;2589;-62
2023/12/29 04:27:39;;;;;;;;;;;;;;;19.38;48.12;100158.75;2058417;28;2139;-62
2023/12/29 04:28:41;;;;;;;;;;;;;;;19.40;47.86;100161.69;2057847;28;2504;-62
2023/12/29 04:29:43;;;;;;;;;;;;;;;19.39;48.01;100158.09;2060359;28;2415;-62
2023/12/29 04:30:44;;;;;;;;;;;;;;;19.39;48.06;100157.34;2060280;28;6095;-62
2023/12/29 04:31:46;;;;;;;;;;;;;;;19.35;48.02;100155.06;2058575;28;2223;-62
2023/12/29 04:32:47;;;;;;;;;;;;;;;19.36;48.05;100155.81;2061415;28;2169;-62
2023/12/29 04:33:49;;;;;;;;;;;;;;;19.36;47.86;100152.94;2060641;28;2145;-62
2023/12/29 04:34:50;;;;;;;;;;;;;;;19.35;48.04;100151.44;2059579;28;2141;-62
2023/12/29 04:35:52;;;;;;;;;;;;;;;19.35;48.15;100148.56;2057952;28;2129;-62
2023/12/29 04:36:53;;;;;;;;;;;;;;;19.36;48.07;100152.94;2059710;28;2236;-62
2023/12/29 04:37:55;;;;;;;;;;;;;;;19.37;47.98;100140.78;2059474;28;2136;-62
2023/12/29 04:38:56;;;;;;;;;;;;;;;19.36;48.02;100142.19;2059198;28;2392;-62
2023/12/29 04:39:57;;;;;;;;;;;;;;;19.37;48.17;100146.53;2061231;28;2482;-62
2023/12/29 04:40:59;;;;;;;;;;;;;;;19.37;48.03;100145.78;2058855;28;2162;-62
2023/12/29 04:42:00;;;;;;;;;;;;;;;19.36;48.13;100145.06;2059269;28;2124;-62
2023/12/29 04:43:03;;;;;;;;;;;;;;;19.36;48.17;100144.31;2059282;28;2063;-62
2023/12/29 04:44:04;;;;;;;;;;;;;;;19.37;48.25;100140.03;2060175;28;2422;-62
2023/12/29 04:45:05;;;;;;;;;;;;;;;19.36;48.23;100139.31;2059877;28;2304;-62
2023/12/29 04:46:07;;;;;;;;;;;;;;;19.36;48.26;100129.97;2057770;28;2424;-62
2023/12/29 04:47:09;;;;;;;;;;;;;;;19.36;48.21;100138.59;2059798;28;2212;-62
2023/12/29 04:48:10;;;;;;;;;;;;;;;19.36;48.22;100133.56;2058376;28;2201;-62
2023/12/29 04:49:12;;;;;;;;;;;;;;;19.36;48.34;100127.84;2059769;28;2035;-62
2023/12/29 04:50:13;;;;;;;;;;;;;;;19.36;48.33;100130.72;2056438;28;2149;-62
2023/12/29 04:51:15;;;;;;;;;;;;;;;19.36;48.38;100116.34;2060205;28;2073;-62
2023/12/29 04:52:16;;;;;;;;;;;;;;;19.36;48.57;100124.22;2062427;28;1517;-62
2023/12/29 04:53:17;;;;;;;;;;;;;;;19.36;48.27;100121.34;2054476;28;1722;-62
2023/12/29 04:54:19;;;;;;;;;;;;;;;19.35;48.48;100131.34;2047073;28;1845;-62
2023/12/29 04:55:20;;;;;;;;;;;;;;;19.36;48.31;100127.09;2044547;28;1888;-62
2023/12/29 04:56:22;;;;;;;;;;;;;;;19.36;48.30;100144.31;2052447;28;2078;-62
2023/12/29 04:57:23;;;;;;;;;;;;;;;19.36;48.30;100138.59;2060168;28;2160;-62
2023/12/29 04:58:25;;;;;;;;;;;;;;;19.36;48.32;100135.72;2060304;28;2193;-62
2023/12/29 04:59:26;;;;;;;;;;;;;;;19.36;48.31;100129.97;2060882;28;2129;-62
2023/12/29 05:00:28;;;;;;;;;;;;;;;19.36;48.39;100132.84;2057320;28;6005;-63
2023/12/29 05:01:29;;;;;;;;;;;;;;;19.35;48.40;100131.34;2059949;28;2198;-63
2023/12/29 05:02:31;;;;;;;;;;;;;;;19.34;48.60;100129.88;2059408;28;2262;-63
2023/12/29 05:03:32;;;;;;;;;;;;;;;19.35;48.57;100125.63;2062807;28;2114;-63
2023/12/29 05:04:34;;;;;;;;;;;;;;;19.34;48.59;100124.88;2058800;28;2195;-63
2023/12/29 05:05:35;;;;;;;;;;;;;;;19.36;48.49;100121.34;2059458;28;2412;-63
2023/12/29 05:06:37;;;;;;;;;;;;;;;19.36;48.40;100119.22;2058862;28;2082;-63
2023/12/29 05:07:39;;;;;;;;;;;;;;;19.36;48.45;100116.34;2060771;28;2170;-62
2023/12/29 05:08:40;;;;;;;;;;;;;;;19.37;48.33;100122.81;2061091;28;2477;-63
2023/12/29 05:09:41;;;;;;;;;;;;;;;19.39;48.40;100120.03;2059181;28;2607;-63
2023/12/29 05:10:43;;;;;;;;;;;;;;;19.39;48.49;100122.91;2057429;28;2408;-63
2023/12/29 05:11:45;;;;;;;;;;;;;;;19.37;48.60;100120.69;2059129;28;2117;-63
2023/12/29 05:12:46;;;;;;;;;;;;;;;19.40;48.56;100121.50;2059366;28;2228;-62
2023/12/29 05:13:48;;;;;;;;;;;;;;;19.40;48.69;100110.78;2057506;28;2129;-63
2023/12/29 05:14:49;;;;;;;;;;;;;;;19.40;48.74;100116.50;2060494;28;2169;-62
2023/12/29 05:15:51;;;;;;;;;;;;;;;19.41;48.74;100123.72;2053599;28;2169;-63
2023/12/29 05:16:52;;;;;;;;;;;;;;;19.41;48.76;100129.47;2053412;28;2135;-63
2023/12/29 05:17:54;;;;;;;;;;;;;;;19.41;48.86;100123.72;2059287;28;2146;-63
2023/12/29 05:18:55;;;;;;;;;;;;;;;19.43;48.89;100114.44;2059767;28;2113;-63
2023/12/29 05:19:57;;;;;;;;;;;;;;;19.42;48.70;100121.56;2060412;28;2263;-63
2023/12/29 05:20:58;;;;;;;;;;;;;;;19.42;48.63;100112.97;2058557;28;2200;-63
2023/12/29 05:22:00;;;;;;;;;;;;;;;19.43;49.00;100114.44;2058285;28;2205;-63
2023/12/29 05:23:01;;;;;;;;;;;;;;;19.42;48.91;100110.09;2060360;28;2114;-63